createdAt,value
2016-05-26T00:00:03.965Z,12.7
2016-05-26T00:00:13.965Z,12.7
2016-05-26T00:00:23.965Z,12.8
2016-05-26T00:00:33.965Z,12.8
2016-05-26T00:00:43.949Z,12.7
2016-05-26T00:00:53.949Z,12.7
2016-05-26T00:01:03.936Z,12.7
2016-05-26T00:01:13.936Z,12.6
2016-05-26T00:01:23.920Z,12.7
2016-05-26T00:01:33.920Z,12.7
2016-05-26T00:01:43.920Z,12.6
2016-05-26T00:01:53.920Z,12.7
2016-05-26T00:02:03.907Z,12.7
2016-05-26T00:02:13.907Z,12.7
2016-05-26T00:02:23.907Z,12.7
2016-05-26T00:02:34.485Z,12.7
2016-05-26T00:02:43.892Z,12.6
2016-05-26T00:02:54.407Z,12.7
2016-05-26T00:03:03.878Z,12.6
2016-05-26T00:03:13.878Z,12.6
2016-05-26T00:03:23.878Z,12.6
2016-05-26T00:03:33.862Z,12.6
2016-05-26T00:03:43.862Z,12.6
2016-05-26T00:03:53.862Z,12.6
2016-05-26T00:04:03.851Z,12.6
2016-05-26T00:04:13.851Z,12.6
2016-05-26T00:04:23.835Z,12.6
2016-05-26T00:04:33.835Z,12.6
2016-05-26T00:04:43.835Z,12.6
2016-05-26T00:04:53.820Z,12.6
2016-05-26T00:05:03.822Z,12.6
2016-05-26T00:05:13.822Z,12.6
2016-05-26T00:05:23.822Z,12.6
2016-05-26T00:05:33.806Z,12.6
2016-05-26T00:05:43.806Z,12.6
2016-05-26T00:05:53.790Z,12.6
2016-05-26T00:06:03.793Z,12.5
2016-05-26T00:06:13.793Z,12.5
2016-05-26T00:06:23.778Z,12.6
2016-05-26T00:06:33.778Z,12.5
2016-05-26T00:06:43.762Z,12.6
2016-05-26T00:06:53.762Z,12.5
2016-05-26T00:07:03.764Z,12.5
2016-05-26T00:07:13.764Z,12.6
2016-05-26T00:07:23.748Z,12.5
2016-05-26T00:07:33.748Z,12.5
2016-05-26T00:07:43.733Z,12.5
2016-05-26T00:07:53.733Z,12.5
2016-05-26T00:08:03.720Z,12.5
2016-05-26T00:08:13.720Z,12.5
2016-05-26T00:08:23.720Z,12.5
2016-05-26T00:08:33.720Z,12.5
2016-05-26T00:08:43.705Z,12.5
2016-05-26T00:08:53.705Z,12.5
2016-05-26T00:09:03.692Z,12.5
2016-05-26T00:09:13.692Z,12.5
2016-05-26T00:09:23.692Z,12.5
2016-05-26T00:09:33.676Z,12.5
2016-05-26T00:09:43.676Z,12.5
2016-05-26T00:09:53.676Z,12.5
2016-05-26T00:10:03.678Z,12.5
2016-05-26T00:10:13.663Z,12.5
2016-05-26T00:10:23.663Z,12.5
2016-05-26T00:10:33.647Z,12.5
2016-05-26T00:10:43.647Z,12.5
2016-05-26T00:10:53.631Z,12.5
2016-05-26T00:11:03.634Z,12.4
2016-05-26T00:11:13.634Z,12.4
2016-05-26T00:11:23.634Z,12.4
2016-05-26T00:11:33.619Z,12.4
2016-05-26T00:11:43.619Z,12.4
2016-05-26T00:11:53.619Z,12.5
2016-05-26T00:12:03.605Z,12.5
2016-05-26T00:12:13.605Z,12.4
2016-05-26T00:12:23.605Z,12.4
2016-05-26T00:12:33.590Z,12.4
2016-05-26T00:12:43.590Z,12.4
2016-05-26T00:12:53.590Z,12.4
2016-05-26T00:13:03.577Z,12.4
2016-05-26T00:13:13.577Z,12.4
2016-05-26T00:13:23.577Z,12.4
2016-05-26T00:13:33.561Z,12.4
2016-05-26T00:13:43.561Z,12.4
2016-05-26T00:13:53.546Z,12.4
2016-05-26T00:14:03.550Z,12.5
2016-05-26T00:14:13.534Z,12.4
2016-05-26T00:14:23.534Z,12.4
2016-05-26T00:14:33.534Z,12.4
2016-05-26T00:14:43.534Z,12.4
2016-05-26T00:14:53.518Z,12.4
2016-05-26T00:15:03.520Z,12.4
2016-05-26T00:15:13.505Z,12.4
2016-05-26T00:15:23.520Z,12.4
2016-05-26T00:15:33.505Z,12.4
2016-05-26T00:15:43.505Z,12.4
2016-05-26T00:15:53.489Z,12.4
2016-05-26T00:16:03.492Z,12.4
2016-05-26T00:16:13.492Z,12.4
2016-05-26T00:16:23.477Z,12.4
2016-05-26T00:16:33.477Z,12.4
2016-05-26T00:16:43.461Z,12.4
2016-05-26T00:16:53.461Z,12.4
2016-05-26T00:17:03.463Z,12.4
2016-05-26T00:17:13.447Z,12.4
2016-05-26T00:17:23.447Z,12.4
2016-05-26T00:17:33.510Z,12.4
2016-05-26T00:17:43.432Z,12.3
2016-05-26T00:17:53.432Z,12.4
2016-05-26T00:18:03.888Z,12.4
2016-05-26T00:18:13.482Z,12.4
2016-05-26T00:18:23.419Z,12.3
2016-05-26T00:18:33.403Z,12.4
2016-05-26T00:18:43.403Z,12.4
2016-05-26T00:18:53.403Z,12.4
2016-05-26T00:19:03.406Z,12.4
2016-05-26T00:19:13.391Z,12.4
2016-05-26T00:19:23.391Z,12.3
2016-05-26T00:19:33.391Z,12.3
2016-05-26T00:19:43.375Z,12.3
2016-05-26T00:19:53.360Z,12.3
2016-05-26T00:20:03.363Z,12.3
2016-05-26T00:20:13.363Z,12.3
2016-05-26T00:20:23.347Z,12.3
2016-05-26T00:20:33.347Z,12.3
2016-05-26T00:20:43.347Z,12.3
2016-05-26T00:20:53.331Z,12.3
2016-05-26T00:21:03.333Z,12.2
2016-05-26T00:21:13.333Z,12.3
2016-05-26T00:21:23.333Z,12.2
2016-05-26T00:21:33.318Z,12.3
2016-05-26T00:21:43.318Z,12.3
2016-05-26T00:21:53.302Z,12.2
2016-05-26T00:22:03.305Z,12.3
2016-05-26T00:22:13.305Z,12.2
2016-05-26T00:22:23.305Z,12.2
2016-05-26T00:22:33.289Z,12.3
2016-05-26T00:22:43.289Z,12.3
2016-05-26T00:22:53.289Z,12.3
2016-05-26T00:23:03.277Z,12.2
2016-05-26T00:23:13.277Z,12.3
2016-05-26T00:23:23.261Z,12.3
2016-05-26T00:23:33.261Z,12.3
2016-05-26T00:23:43.261Z,12.3
2016-05-26T00:23:53.246Z,12.3
2016-05-26T00:24:03.248Z,12.3
2016-05-26T00:24:13.263Z,12.3
2016-05-26T00:24:23.248Z,12.3
2016-05-26T00:24:33.232Z,12.3
2016-05-26T00:24:43.232Z,12.1
2016-05-26T00:24:53.216Z,12.3
2016-05-26T00:25:03.219Z,12.3
2016-05-26T00:25:13.219Z,12.2
2016-05-26T00:25:23.219Z,12.3
2016-05-26T00:25:33.204Z,12.3
2016-05-26T00:25:43.188Z,12.2
2016-05-26T00:25:53.188Z,12.2
2016-05-26T00:26:03.190Z,12.2
2016-05-26T00:26:13.174Z,12.2
2016-05-26T00:26:23.174Z,12.2
2016-05-26T00:26:33.174Z,12.2
2016-05-26T00:26:43.159Z,12.1
2016-05-26T00:26:53.159Z,12.2
2016-05-26T00:27:03.146Z,12.2
2016-05-26T00:27:13.146Z,12.2
2016-05-26T00:27:23.146Z,12.2
2016-05-26T00:27:33.146Z,12.2
2016-05-26T00:27:43.131Z,12.2
2016-05-26T00:27:53.131Z,12.2
2016-05-26T00:28:03.118Z,12.2
2016-05-26T00:28:13.118Z,12.2
2016-05-26T00:28:23.118Z,12.1
2016-05-26T00:28:33.102Z,12.1
2016-05-26T00:28:43.102Z,12.1
2016-05-26T00:28:53.102Z,12.2
2016-05-26T00:29:03.089Z,12.1
2016-05-26T00:29:13.089Z,12.1
2016-05-26T00:29:23.073Z,12.2
2016-05-26T00:29:33.073Z,12.1
2016-05-26T00:29:43.073Z,12.1
2016-05-26T00:29:53.073Z,12.1
2016-05-26T00:30:03.060Z,12.1
2016-05-26T00:30:13.060Z,12.1
2016-05-26T00:30:23.045Z,12.1
2016-05-26T00:30:33.045Z,12.1
2016-05-26T00:30:43.045Z,12.1
2016-05-26T00:30:53.029Z,12.1
2016-05-26T00:31:03.032Z,12.1
2016-05-26T00:31:13.032Z,12.1
2016-05-26T00:31:23.017Z,12.1
2016-05-26T00:31:33.017Z,12.2
2016-05-26T00:31:43.017Z,12.1
2016-05-26T00:31:53.001Z,12.1
2016-05-26T00:32:03.003Z,12.2
2016-05-26T00:32:13.003Z,12
2016-05-26T00:32:23.206Z,12.2
2016-05-26T00:32:33.003Z,12.1
2016-05-26T00:32:42.972Z,12.1
2016-05-26T00:32:53.097Z,12.2
2016-05-26T00:33:02.975Z,12.1
2016-05-26T00:33:12.975Z,12.2
2016-05-26T00:33:22.959Z,12.1
2016-05-26T00:33:32.959Z,12.2
2016-05-26T00:33:42.943Z,12.2
2016-05-26T00:33:52.943Z,12.2
2016-05-26T00:34:02.946Z,12.1
2016-05-26T00:34:12.931Z,12.1
2016-05-26T00:34:22.931Z,12.2
2016-05-26T00:34:32.915Z,12.2
2016-05-26T00:34:42.915Z,12.1
2016-05-26T00:34:52.915Z,12.1
2016-05-26T00:35:02.918Z,12.1
2016-05-26T00:35:12.903Z,12
2016-05-26T00:35:22.903Z,12.2
2016-05-26T00:35:32.903Z,12.1
2016-05-26T00:35:42.887Z,12.2
2016-05-26T00:35:52.871Z,12.1
2016-05-26T00:36:02.874Z,12
2016-05-26T00:36:12.874Z,12.2
2016-05-26T00:36:22.874Z,12.1
2016-05-26T00:36:32.874Z,12.2
2016-05-26T00:36:42.859Z,12.1
2016-05-26T00:36:52.859Z,12.1
2016-05-26T00:37:02.846Z,12.1
2016-05-26T00:37:12.846Z,12.2
2016-05-26T00:37:22.846Z,12.2
2016-05-26T00:37:32.830Z,12.2
2016-05-26T00:37:42.830Z,12.2
2016-05-26T00:37:52.830Z,12.1
2016-05-26T00:38:02.817Z,12.1
2016-05-26T00:38:12.817Z,12.1
2016-05-26T00:38:22.801Z,12.2
2016-05-26T00:38:32.801Z,12.1
2016-05-26T00:38:42.801Z,12.1
2016-05-26T00:38:52.786Z,12.1
2016-05-26T00:39:02.789Z,12.1
2016-05-26T00:39:12.789Z,12.1
2016-05-26T00:39:22.773Z,12.2
2016-05-26T00:39:32.773Z,12.1
2016-05-26T00:39:42.773Z,12.1
2016-05-26T00:39:52.757Z,12.2
2016-05-26T00:40:02.759Z,12.1
2016-05-26T00:40:12.759Z,12.2
2016-05-26T00:40:22.744Z,12.1
2016-05-26T00:40:32.744Z,12.2
2016-05-26T00:40:42.744Z,12.1
2016-05-26T00:40:52.744Z,12.1
2016-05-26T00:41:02.731Z,12.2
2016-05-26T00:41:12.715Z,12.2
2016-05-26T00:41:22.715Z,12.2
2016-05-26T00:41:32.700Z,12.2
2016-05-26T00:41:42.700Z,12.1
2016-05-26T00:41:52.700Z,12.2
2016-05-26T00:42:02.687Z,12.2
2016-05-26T00:42:12.687Z,12.1
2016-05-26T00:42:22.687Z,12.1
2016-05-26T00:42:32.687Z,12.1
2016-05-26T00:42:42.672Z,12.1
2016-05-26T00:42:52.672Z,12.1
2016-05-26T00:43:02.658Z,12.1
2016-05-26T00:43:12.658Z,12.2
2016-05-26T00:43:22.658Z,12.1
2016-05-26T00:43:32.642Z,12.1
2016-05-26T00:43:42.642Z,12.1
2016-05-26T00:43:52.642Z,12.1
2016-05-26T00:44:02.645Z,12.2
2016-05-26T00:44:12.630Z,12.1
2016-05-26T00:44:22.630Z,12.2
2016-05-26T00:44:32.614Z,12.1
2016-05-26T00:44:42.614Z,12.2
2016-05-26T00:44:52.614Z,12.2
2016-05-26T00:45:02.600Z,12.2
2016-05-26T00:45:12.600Z,12.1
2016-05-26T00:45:22.600Z,12.1
2016-05-26T00:45:32.585Z,12.1
2016-05-26T00:45:42.600Z,12.2
2016-05-26T00:45:52.585Z,12.1
2016-05-26T00:46:02.572Z,12.1
2016-05-26T00:46:12.572Z,12.1
2016-05-26T00:46:22.557Z,12.2
2016-05-26T00:46:32.557Z,12.1
2016-05-26T00:46:42.557Z,12.2
2016-05-26T00:46:52.541Z,12.1
2016-05-26T00:47:02.544Z,12.2
2016-05-26T00:47:12.544Z,12.1
2016-05-26T00:47:22.544Z,12.2
2016-05-26T00:47:32.528Z,12.2
2016-05-26T00:47:42.528Z,12.1
2016-05-26T00:47:52.810Z,12.2
2016-05-26T00:48:02.516Z,12.1
2016-05-26T00:48:12.516Z,12.2
2016-05-26T00:48:22.656Z,12.2
2016-05-26T00:48:32.500Z,12.1
2016-05-26T00:48:42.500Z,12.2
2016-05-26T00:48:52.484Z,12.3
2016-05-26T00:49:02.486Z,12.2
2016-05-26T00:49:12.486Z,12.1
2016-05-26T00:49:22.471Z,12.3
2016-05-26T00:49:32.471Z,12.2
2016-05-26T00:49:42.455Z,12.2
2016-05-26T00:49:52.455Z,12.2
2016-05-26T00:50:02.458Z,12.2
2016-05-26T00:50:12.443Z,12.2
2016-05-26T00:50:22.443Z,12.2
2016-05-26T00:50:32.443Z,12.2
2016-05-26T00:50:42.443Z,12.3
2016-05-26T00:50:52.427Z,12.3
2016-05-26T00:51:02.414Z,12.2
2016-05-26T00:51:12.414Z,12.2
2016-05-26T00:51:22.414Z,12.2
2016-05-26T00:51:32.399Z,12.2
2016-05-26T00:51:42.399Z,12.3
2016-05-26T00:51:52.399Z,12.3
2016-05-26T00:52:02.401Z,12.3
2016-05-26T00:52:12.385Z,12.2
2016-05-26T00:52:22.385Z,12.2
2016-05-26T00:52:32.385Z,12.2
2016-05-26T00:52:42.369Z,12.3
2016-05-26T00:52:52.369Z,12.3
2016-05-26T00:53:02.357Z,12.3
2016-05-26T00:53:12.357Z,12.3
2016-05-26T00:53:22.357Z,12.3
2016-05-26T00:53:32.341Z,12.3
2016-05-26T00:53:42.341Z,12.2
2016-05-26T00:53:52.341Z,12.2
2016-05-26T00:54:02.329Z,12.3
2016-05-26T00:54:12.329Z,12.2
2016-05-26T00:54:22.329Z,12.3
2016-05-26T00:54:32.313Z,12.3
2016-05-26T00:54:42.313Z,12.3
2016-05-26T00:54:52.297Z,12.3
2016-05-26T00:55:02.299Z,12.3
2016-05-26T00:55:12.299Z,12.2
2016-05-26T00:55:22.284Z,12.3
2016-05-26T00:55:32.284Z,12.3
2016-05-26T00:55:42.284Z,12.3
2016-05-26T00:55:52.284Z,12.2
2016-05-26T00:56:02.271Z,12.3
2016-05-26T00:56:12.271Z,12.3
2016-05-26T00:56:22.255Z,12.3
2016-05-26T00:56:32.255Z,12.3
2016-05-26T00:56:42.240Z,12.2
2016-05-26T00:56:52.240Z,12.3
2016-05-26T00:57:02.243Z,12.3
2016-05-26T00:57:12.243Z,12.2
2016-05-26T00:57:22.227Z,12.2
2016-05-26T00:57:32.227Z,12.3
2016-05-26T00:57:42.212Z,12.2
2016-05-26T00:57:52.212Z,12.2
2016-05-26T00:58:02.199Z,12.3
2016-05-26T00:58:12.199Z,12.1
2016-05-26T00:58:22.215Z,12.2
2016-05-26T00:58:32.199Z,12.3
2016-05-26T00:58:42.199Z,12.3
2016-05-26T00:58:52.183Z,12.3
2016-05-26T00:59:02.185Z,12.2
2016-05-26T00:59:12.170Z,12.3
2016-05-26T00:59:22.170Z,12.3
2016-05-26T00:59:32.170Z,12.3
2016-05-26T00:59:42.154Z,12.2
2016-05-26T00:59:52.154Z,12.3
2016-05-26T01:00:02.141Z,12.2
2016-05-26T01:00:12.141Z,12.2
2016-05-26T01:00:22.141Z,12.3
2016-05-26T01:00:32.141Z,12.3
2016-05-26T01:00:42.126Z,12.3
2016-05-26T01:00:52.126Z,12.3
2016-05-26T01:01:02.113Z,12.2
2016-05-26T01:01:12.113Z,12.3
2016-05-26T01:01:22.113Z,12.3
2016-05-26T01:01:32.098Z,12.3
2016-05-26T01:01:42.098Z,12.2
2016-05-26T01:01:52.098Z,12.2
2016-05-26T01:02:02.084Z,12.3
2016-05-26T01:02:12.084Z,12.3
2016-05-26T01:02:22.084Z,12.3
2016-05-26T01:02:32.068Z,12.3
2016-05-26T01:02:42.068Z,12.3
2016-05-26T01:02:52.053Z,12.3
2016-05-26T01:03:02.056Z,12.3
2016-05-26T01:03:12.056Z,12.3
2016-05-26T01:03:22.040Z,12.3
2016-05-26T01:03:32.243Z,12.3
2016-05-26T01:03:42.040Z,12.2
2016-05-26T01:03:52.024Z,12.3
2016-05-26T01:04:02.043Z,12.3
2016-05-26T01:04:12.027Z,12.3
2016-05-26T01:04:22.012Z,12.2
2016-05-26T01:04:32.012Z,12.3
2016-05-26T01:04:41.996Z,12.3
2016-05-26T01:04:51.996Z,12.3
2016-05-26T01:05:01.999Z,12.1
2016-05-26T01:05:11.999Z,12.3
2016-05-26T01:05:21.999Z,12.3
2016-05-26T01:05:31.984Z,12.3
2016-05-26T01:05:41.984Z,12.3
2016-05-26T01:05:51.968Z,12.2
2016-05-26T01:06:01.970Z,12.2
2016-05-26T01:06:11.954Z,12.2
2016-05-26T01:06:21.954Z,12.1
2016-05-26T01:06:31.954Z,12.3
2016-05-26T01:06:41.954Z,12.2
2016-05-26T01:06:51.939Z,12.2
2016-05-26T01:07:01.942Z,12.3
2016-05-26T01:07:11.926Z,12.1
2016-05-26T01:07:21.926Z,12.3
2016-05-26T01:07:31.926Z,12.3
2016-05-26T01:07:41.910Z,12.2
2016-05-26T01:07:51.910Z,12.2
2016-05-26T01:08:01.912Z,12.3
2016-05-26T01:08:11.897Z,12.2
2016-05-26T01:08:21.897Z,12.3
2016-05-26T01:08:31.897Z,12.2
2016-05-26T01:08:41.881Z,12.3
2016-05-26T01:08:51.881Z,12.3
2016-05-26T01:09:01.884Z,12.1
2016-05-26T01:09:11.869Z,12.2
2016-05-26T01:09:21.869Z,12.2
2016-05-26T01:09:31.853Z,12.3
2016-05-26T01:09:41.853Z,12.3
2016-05-26T01:09:51.853Z,12.2
2016-05-26T01:10:01.840Z,12.2
2016-05-26T01:10:11.840Z,12.1
2016-05-26T01:10:21.840Z,12.2
2016-05-26T01:10:31.825Z,12.2
2016-05-26T01:10:41.825Z,12.3
2016-05-26T01:10:51.809Z,12.2
2016-05-26T01:11:01.811Z,12.2
2016-05-26T01:11:11.827Z,12.2
2016-05-26T01:11:21.811Z,12.2
2016-05-26T01:11:31.795Z,12.3
2016-05-26T01:11:41.795Z,12.3
2016-05-26T01:11:51.780Z,12.1
2016-05-26T01:12:01.784Z,12.3
2016-05-26T01:12:11.784Z,12.1
2016-05-26T01:12:21.784Z,12.2
2016-05-26T01:12:31.768Z,12.2
2016-05-26T01:12:41.768Z,12.2
2016-05-26T01:12:51.768Z,12.3
2016-05-26T01:13:01.755Z,12.3
2016-05-26T01:13:11.755Z,12.2
2016-05-26T01:13:21.739Z,12.3
2016-05-26T01:13:31.739Z,12.2
2016-05-26T01:13:41.723Z,12.3
2016-05-26T01:13:51.723Z,12.2
2016-05-26T01:14:01.725Z,12.3
2016-05-26T01:14:11.725Z,12.2
2016-05-26T01:14:21.710Z,12.3
2016-05-26T01:14:31.710Z,12.3
2016-05-26T01:14:41.710Z,12.3
2016-05-26T01:14:51.694Z,12.3
2016-05-26T01:15:01.697Z,12.3
2016-05-26T01:15:11.681Z,12.3
2016-05-26T01:15:21.681Z,12.3
2016-05-26T01:15:31.681Z,12.2
2016-05-26T01:15:41.681Z,12.2
2016-05-26T01:15:51.666Z,12.3
2016-05-26T01:16:01.669Z,12.3
2016-05-26T01:16:11.669Z,12.3
2016-05-26T01:16:21.653Z,12.3
2016-05-26T01:16:31.638Z,12.3
2016-05-26T01:16:41.638Z,12.2
2016-05-26T01:16:51.638Z,12.3
2016-05-26T01:17:01.641Z,12.3
2016-05-26T01:17:11.625Z,12.2
2016-05-26T01:17:21.859Z,12.3
2016-05-26T01:17:31.625Z,12.2
2016-05-26T01:17:41.609Z,12.2
2016-05-26T01:17:51.984Z,12.2
2016-05-26T01:18:01.611Z,12.3
2016-05-26T01:18:11.596Z,12.3
2016-05-26T01:18:21.596Z,12.3
2016-05-26T01:18:31.580Z,12.3
2016-05-26T01:18:41.580Z,12.3
2016-05-26T01:18:51.564Z,12.3
2016-05-26T01:19:01.567Z,12.3
2016-05-26T01:19:11.567Z,12.3
2016-05-26T01:19:21.567Z,12.3
2016-05-26T01:19:31.552Z,12.3
2016-05-26T01:19:41.552Z,12.3
2016-05-26T01:19:51.536Z,12.3
2016-05-26T01:20:01.539Z,12.3
2016-05-26T01:20:11.539Z,12.3
2016-05-26T01:20:21.539Z,12.3
2016-05-26T01:20:31.539Z,12.3
2016-05-26T01:20:41.524Z,12.3
2016-05-26T01:20:51.524Z,12.3
2016-05-26T01:21:01.511Z,12.3
2016-05-26T01:21:11.511Z,12.3
2016-05-26T01:21:21.511Z,12.4
2016-05-26T01:21:31.495Z,12.3
2016-05-26T01:21:41.495Z,12.3
2016-05-26T01:21:51.480Z,12.4
2016-05-26T01:22:01.497Z,12.3
2016-05-26T01:22:11.482Z,12.3
2016-05-26T01:22:21.482Z,12.4
2016-05-26T01:22:31.466Z,12.3
2016-05-26T01:22:41.466Z,12.3
2016-05-26T01:22:51.450Z,12.4
2016-05-26T01:23:01.452Z,12.4
2016-05-26T01:23:11.437Z,12.3
2016-05-26T01:23:21.437Z,12.4
2016-05-26T01:23:31.421Z,12.3
2016-05-26T01:23:41.437Z,12.4
2016-05-26T01:23:51.421Z,12.4
2016-05-26T01:24:01.425Z,12.4
2016-05-26T01:24:11.410Z,12.3
2016-05-26T01:24:21.410Z,12.4
2016-05-26T01:24:31.410Z,12.4
2016-05-26T01:24:41.410Z,12.4
2016-05-26T01:24:51.394Z,12.4
2016-05-26T01:25:01.380Z,12.4
2016-05-26T01:25:11.380Z,12.3
2016-05-26T01:25:21.380Z,12.4
2016-05-26T01:25:31.365Z,12.3
2016-05-26T01:25:41.365Z,12.4
2016-05-26T01:25:51.365Z,12.4
2016-05-26T01:26:01.352Z,12.4
2016-05-26T01:26:11.352Z,12.3
2016-05-26T01:26:21.352Z,12.4
2016-05-26T01:26:31.336Z,12.4
2016-05-26T01:26:41.336Z,12.4
2016-05-26T01:26:51.321Z,12.4
2016-05-26T01:27:01.338Z,12.4
2016-05-26T01:27:11.323Z,12.4
2016-05-26T01:27:21.323Z,12.4
2016-05-26T01:27:31.307Z,12.4
2016-05-26T01:27:41.307Z,12.4
2016-05-26T01:27:51.307Z,12.4
2016-05-26T01:28:01.295Z,12.4
2016-05-26T01:28:11.295Z,12.4
2016-05-26T01:28:21.279Z,12.4
2016-05-26T01:28:31.279Z,12.4
2016-05-26T01:28:41.279Z,12.4
2016-05-26T01:28:51.263Z,12.4
2016-05-26T01:29:01.282Z,12.5
2016-05-26T01:29:11.266Z,12.4
2016-05-26T01:29:21.251Z,12.4
2016-05-26T01:29:31.251Z,12.4
2016-05-26T01:29:41.251Z,12.4
2016-05-26T01:29:51.235Z,12.4
2016-05-26T01:30:01.237Z,12.4
2016-05-26T01:30:11.237Z,12.4
2016-05-26T01:30:21.221Z,12.4
2016-05-26T01:30:31.221Z,12.4
2016-05-26T01:30:41.221Z,12.4
2016-05-26T01:30:51.206Z,12.4
2016-05-26T01:31:01.210Z,12.4
2016-05-26T01:31:11.210Z,12.4
2016-05-26T01:31:21.194Z,12.4
2016-05-26T01:31:31.194Z,12.5
2016-05-26T01:31:41.179Z,12.4
2016-05-26T01:31:51.179Z,12.4
2016-05-26T01:32:01.181Z,12.4
2016-05-26T01:32:11.165Z,12.4
2016-05-26T01:32:21.337Z,12.4
2016-05-26T01:32:31.165Z,12.4
2016-05-26T01:32:41.165Z,12.4
2016-05-26T01:32:51.149Z,12.4
2016-05-26T01:33:01.152Z,12.4
2016-05-26T01:33:11.137Z,12.4
2016-05-26T01:33:21.137Z,12.4
2016-05-26T01:33:31.121Z,12.4
2016-05-26T01:33:41.121Z,12.4
2016-05-26T01:33:51.121Z,12.4
2016-05-26T01:34:01.123Z,12.4
2016-05-26T01:34:11.107Z,12.4
2016-05-26T01:34:21.123Z,12.4
2016-05-26T01:34:31.092Z,12.4
2016-05-26T01:34:41.092Z,12.4
2016-05-26T01:34:51.092Z,12.4
2016-05-26T01:35:01.095Z,12.5
2016-05-26T01:35:11.079Z,12.4
2016-05-26T01:35:21.079Z,12.5
2016-05-26T01:35:31.079Z,12.4
2016-05-26T01:35:41.064Z,12.5
2016-05-26T01:35:51.064Z,12.5
2016-05-26T01:36:01.067Z,12.4
2016-05-26T01:36:11.051Z,12.4
2016-05-26T01:36:21.051Z,12.5
2016-05-26T01:36:31.035Z,12.5
2016-05-26T01:36:41.035Z,12.5
2016-05-26T01:36:51.035Z,12.5
2016-05-26T01:37:01.023Z,12.5
2016-05-26T01:37:11.023Z,12.4
2016-05-26T01:37:21.007Z,12.4
2016-05-26T01:37:31.007Z,12.4
2016-05-26T01:37:41.007Z,12.5
2016-05-26T01:37:51.007Z,12.5
2016-05-26T01:38:00.994Z,12.4
2016-05-26T01:38:10.994Z,12.4
2016-05-26T01:38:20.994Z,12.5
2016-05-26T01:38:30.979Z,12.5
2016-05-26T01:38:40.979Z,12.5
2016-05-26T01:38:50.979Z,12.5
2016-05-26T01:39:00.965Z,12.6
2016-05-26T01:39:10.950Z,12.5
2016-05-26T01:39:20.950Z,12.6
2016-05-26T01:39:30.950Z,12.5
2016-05-26T01:39:40.950Z,12.6
2016-05-26T01:39:50.934Z,12.6
2016-05-26T01:40:00.937Z,12.6
2016-05-26T01:40:10.937Z,12.5
2016-05-26T01:40:20.921Z,12.5
2016-05-26T01:40:30.921Z,12.5
2016-05-26T01:40:40.906Z,12.5
2016-05-26T01:40:50.906Z,12.5
2016-05-26T01:41:00.908Z,12.5
2016-05-26T01:41:10.908Z,12.5
2016-05-26T01:41:20.892Z,12.5
2016-05-26T01:41:30.892Z,12.5
2016-05-26T01:41:40.876Z,12.6
2016-05-26T01:41:50.876Z,12.5
2016-05-26T01:42:00.879Z,12.5
2016-05-26T01:42:10.864Z,12.5
2016-05-26T01:42:20.864Z,12.5
2016-05-26T01:42:30.848Z,12.5
2016-05-26T01:42:40.848Z,12.5
2016-05-26T01:42:50.848Z,12.5
2016-05-26T01:43:00.851Z,12.6
2016-05-26T01:43:10.836Z,12.5
2016-05-26T01:43:20.836Z,12.5
2016-05-26T01:43:30.836Z,12.5
2016-05-26T01:43:40.820Z,12.5
2016-05-26T01:43:50.820Z,12.5
2016-05-26T01:44:00.822Z,12.5
2016-05-26T01:44:10.806Z,12.5
2016-05-26T01:44:20.806Z,12.5
2016-05-26T01:44:30.791Z,12.5
2016-05-26T01:44:40.791Z,12.5
2016-05-26T01:44:50.791Z,12.5
2016-05-26T01:45:00.778Z,12.5
2016-05-26T01:45:10.778Z,12.5
2016-05-26T01:45:20.778Z,12.6
2016-05-26T01:45:30.762Z,12.5
2016-05-26T01:45:40.762Z,12.5
2016-05-26T01:45:50.747Z,12.5
2016-05-26T01:46:00.749Z,12.5
2016-05-26T01:46:10.749Z,12.6
2016-05-26T01:46:20.749Z,12.5
2016-05-26T01:46:30.733Z,12.5
2016-05-26T01:46:40.733Z,12.5
2016-05-26T01:46:50.733Z,12.5
2016-05-26T01:47:00.721Z,12.5
2016-05-26T01:47:10.705Z,12.6
2016-05-26T01:47:20.830Z,12.5
2016-05-26T01:47:30.705Z,12.5
2016-05-26T01:47:40.705Z,12.5
2016-05-26T01:47:51.330Z,12.5
2016-05-26T01:48:00.692Z,12.5
2016-05-26T01:48:10.692Z,12.5
2016-05-26T01:48:20.677Z,12.5
2016-05-26T01:48:30.677Z,12.5
2016-05-26T01:48:40.661Z,12.6
2016-05-26T01:48:50.661Z,12.5
2016-05-26T01:49:00.663Z,12.6
2016-05-26T01:49:10.647Z,12.5
2016-05-26T01:49:20.647Z,12.6
2016-05-26T01:49:30.647Z,12.5
2016-05-26T01:49:40.647Z,12.5
2016-05-26T01:49:50.632Z,12.6
2016-05-26T01:50:00.635Z,12.6
2016-05-26T01:50:10.619Z,12.6
2016-05-26T01:50:20.619Z,12.6
2016-05-26T01:50:30.619Z,12.6
2016-05-26T01:50:40.619Z,12.6
2016-05-26T01:50:50.604Z,12.6
2016-05-26T01:51:00.607Z,12.6
2016-05-26T01:51:10.591Z,12.5
2016-05-26T01:51:20.591Z,12.6
2016-05-26T01:51:30.591Z,12.6
2016-05-26T01:51:40.575Z,12.6
2016-05-26T01:51:50.575Z,12.6
2016-05-26T01:52:00.563Z,12.6
2016-05-26T01:52:10.563Z,12.6
2016-05-26T01:52:20.563Z,12.6
2016-05-26T01:52:30.563Z,12.6
2016-05-26T01:52:40.547Z,12.7
2016-05-26T01:52:50.547Z,12.6
2016-05-26T01:53:00.550Z,12.6
2016-05-26T01:53:10.534Z,12.6
2016-05-26T01:53:20.534Z,12.6
2016-05-26T01:53:30.519Z,12.6
2016-05-26T01:53:40.519Z,12.6
2016-05-26T01:53:50.519Z,12.6
2016-05-26T01:54:00.505Z,12.6
2016-05-26T01:54:10.505Z,12.6
2016-05-26T01:54:20.505Z,12.6
2016-05-26T01:54:30.490Z,12.6
2016-05-26T01:54:40.490Z,12.7
2016-05-26T01:54:50.490Z,12.7
2016-05-26T01:55:00.477Z,12.7
2016-05-26T01:55:10.477Z,12.6
2016-05-26T01:55:20.461Z,12.7
2016-05-26T01:55:30.477Z,12.7
2016-05-26T01:55:40.461Z,12.7
2016-05-26T01:55:50.461Z,12.6
2016-05-26T01:56:00.449Z,12.7
2016-05-26T01:56:10.449Z,12.7
2016-05-26T01:56:20.449Z,12.7
2016-05-26T01:56:30.433Z,12.6
2016-05-26T01:56:40.433Z,12.7
2016-05-26T01:56:50.417Z,12.7
2016-05-26T01:57:00.420Z,12.7
2016-05-26T01:57:10.405Z,12.6
2016-05-26T01:57:20.405Z,12.7
2016-05-26T01:57:30.405Z,12.7
2016-05-26T01:57:40.405Z,12.7
2016-05-26T01:57:50.389Z,12.7
2016-05-26T01:58:00.391Z,12.7
2016-05-26T01:58:10.391Z,12.7
2016-05-26T01:58:20.376Z,12.7
2016-05-26T01:58:30.376Z,12.7
2016-05-26T01:58:40.360Z,12.7
2016-05-26T01:58:50.360Z,12.7
2016-05-26T01:59:00.363Z,12.7
2016-05-26T01:59:10.363Z,12.7
2016-05-26T01:59:20.347Z,12.7
2016-05-26T01:59:30.347Z,12.6
2016-05-26T01:59:40.332Z,12.7
2016-05-26T01:59:50.332Z,12.7
2016-05-26T02:00:00.334Z,12.7
2016-05-26T02:00:10.318Z,12.7
2016-05-26T02:00:20.318Z,12.7
2016-05-26T02:00:30.302Z,12.7
2016-05-26T02:00:40.302Z,12.7
2016-05-26T02:00:50.302Z,12.7
2016-05-26T02:01:00.305Z,12.7
2016-05-26T02:01:10.305Z,12.7
2016-05-26T02:01:20.290Z,12.7
2016-05-26T02:01:30.290Z,12.7
2016-05-26T02:01:40.274Z,12.8
2016-05-26T02:01:50.274Z,12.7
2016-05-26T02:02:00.262Z,12.7
2016-05-26T02:02:10.262Z,12.7
2016-05-26T02:02:20.449Z,12.7
2016-05-26T02:02:30.246Z,12.7
2016-05-26T02:02:40.246Z,12.7
2016-05-26T02:02:50.246Z,12.7
2016-05-26T02:03:00.232Z,12.7
2016-05-26T02:03:10.326Z,12.7
2016-05-26T02:03:20.232Z,12.7
2016-05-26T02:03:30.217Z,12.8
2016-05-26T02:03:40.217Z,12.7
2016-05-26T02:03:50.201Z,12.7
2016-05-26T02:04:00.204Z,12.7
2016-05-26T02:04:10.204Z,12.8
2016-05-26T02:04:20.188Z,12.8
2016-05-26T02:04:30.188Z,12.8
2016-05-26T02:04:40.188Z,12.7
2016-05-26T02:04:50.173Z,12.7
2016-05-26T02:05:00.175Z,12.7
2016-05-26T02:05:10.175Z,12.8
2016-05-26T02:05:20.175Z,12.7
2016-05-26T02:05:30.159Z,12.7
2016-05-26T02:05:40.144Z,12.7
2016-05-26T02:05:50.159Z,12.7
2016-05-26T02:06:00.148Z,12.7
2016-05-26T02:06:10.148Z,12.8
2016-05-26T02:06:20.132Z,12.7
2016-05-26T02:06:30.132Z,12.7
2016-05-26T02:06:40.132Z,12.7
2016-05-26T02:06:50.116Z,12.8
2016-05-26T02:07:00.118Z,12.7
2016-05-26T02:07:10.118Z,12.7
2016-05-26T02:07:20.103Z,12.7
2016-05-26T02:07:30.103Z,12.7
2016-05-26T02:07:40.087Z,12.8
2016-05-26T02:07:50.087Z,12.7
2016-05-26T02:08:00.090Z,12.8
2016-05-26T02:08:10.074Z,12.7
2016-05-26T02:08:20.074Z,12.7
2016-05-26T02:08:30.074Z,12.8
2016-05-26T02:08:40.074Z,12.7
2016-05-26T02:08:50.059Z,12.7
2016-05-26T02:09:00.061Z,12.7
2016-05-26T02:09:10.045Z,12.7
2016-05-26T02:09:20.045Z,12.7
2016-05-26T02:09:30.045Z,12.7
2016-05-26T02:09:40.030Z,12.7
2016-05-26T02:09:50.030Z,12.7
2016-05-26T02:10:00.033Z,12.7
2016-05-26T02:10:10.017Z,12.8
2016-05-26T02:10:20.017Z,12.7
2016-05-26T02:10:30.017Z,12.7
2016-05-26T02:10:40.001Z,12.8
2016-05-26T02:10:50.017Z,12.7
2016-05-26T02:10:59.989Z,12.7
2016-05-26T02:11:09.989Z,12.7
2016-05-26T02:11:19.989Z,12.8
2016-05-26T02:11:29.973Z,12.7
2016-05-26T02:11:39.989Z,12.8
2016-05-26T02:11:49.973Z,12.8
2016-05-26T02:11:59.959Z,12.8
2016-05-26T02:12:09.959Z,12.7
2016-05-26T02:12:19.944Z,12.8
2016-05-26T02:12:29.944Z,12.7
2016-05-26T02:12:39.944Z,12.7
2016-05-26T02:12:49.944Z,12.8
2016-05-26T02:12:59.948Z,12.8